Time;durP1;ratioP1;P1;durP2;ratioP2;P2;SDS_P1;SDS_P2;PMS_P1;PMS_P2;Temp;Humidity;BMP_temperature;BMP_pressure;BME280_temperature;BME280_humidity;BME280_pressure;Samples;Min_cycle;Max_cycle;Signal;HPM_P1;HPM_P2
2023/04/30 00:02:09;;;;;;;16.30;15.40;;;13.70;1.00;;;;;;4961657;28;20960;-80
2023/04/30 00:04:37;;;;;;;16.27;15.57;;;13.70;1.00;;;;;;4959208;28;20494;-81
2023/04/30 00:07:07;;;;;;;15.73;15.07;;;13.70;1.00;;;;;;4962027;28;20826;-81
2023/04/30 00:09:35;;;;;;;15.63;14.93;;;13.70;1.00;;;;;;4962317;28;21033;-80
2023/04/30 00:12:03;;;;;;;16.87;16.13;;;13.60;1.00;;;;;;4961824;28;20562;-81
2023/04/30 00:14:32;;;;;;;15.40;14.80;;;13.70;1.00;;;;;;4962071;28;20463;-81
2023/04/30 00:17:00;;;;;;;15.20;14.60;;;13.70;1.00;;;;;;4961655;28;20462;-80
2023/04/30 00:19:28;;;;;;;15.43;14.73;;;13.60;1.00;;;;;;4961420;28;20471;-80
2023/04/30 00:21:56;;;;;;;15.50;14.80;;;13.60;1.00;;;;;;4959218;28;20514;-80
2023/04/30 00:24:26;;;;;;;15.67;15.07;;;13.70;1.00;;;;;;4953656;28;20553;-81
2023/04/30 00:26:54;;;;;;;15.77;15.03;;;13.60;1.00;;;;;;4958940;28;20681;-82
2023/04/30 00:29:22;;;;;;;16.83;16.07;;;13.60;1.00;;;;;;4957304;28;20614;-80
2023/04/30 00:31:50;;;;;;;16.00;15.30;;;13.50;1.00;;;;;;4958198;28;20490;-80
2023/04/30 00:34:18;;;;;;;15.37;14.77;;;13.60;1.00;;;;;;4957652;28;20444;-81
2023/04/30 00:36:46;;;;;;;15.43;14.83;;;13.60;1.00;;;;;;4962728;28;20470;-81
2023/04/30 00:39:15;;;;;;;15.93;15.23;;;13.60;1.00;;;;;;4959149;28;20483;-81
2023/04/30 00:41:45;;;;;;;15.87;15.27;;;13.50;1.00;;;;;;4960694;28;20456;-80
2023/04/30 00:44:13;;;;;;;15.80;15.10;;;13.50;1.00;;;;;;4962117;28;20467;-82
2023/04/30 00:46:41;;;;;;;16.40;15.60;;;13.50;1.00;;;;;;4961944;28;20547;-81
2023/04/30 00:49:09;;;;;;;17.00;16.00;;;13.50;1.00;;;;;;4958734;28;21074;-80
2023/04/30 00:51:41;;;;;;;16.27;15.57;;;13.50;1.20;;;;;;4961853;28;21007;-81
2023/04/30 00:54:09;;;;;;;16.63;15.93;;;13.50;1.00;;;;;;4958061;28;20455;-81
2023/04/30 00:56:37;;;;;;;16.70;15.80;;;13.40;1.00;;;;;;4961298;28;20471;-82
2023/04/30 00:59:07;;;;;;;16.37;15.70;;;13.40;1.00;;;;;;4958665;28;21245;-82
2023/04/30 01:01:35;;;;;;;15.60;15.00;;;13.40;1.00;;;;;;4959090;28;20485;-83
2023/04/30 01:04:03;;;;;;;16.80;16.10;;;13.40;1.00;;;;;;4961583;28;20553;-81
2023/04/30 01:06:32;;;;;;;16.50;15.73;;;13.40;1.00;;;;;;4964471;28;20463;-81
2023/04/30 01:09:00;;;;;;;16.43;15.73;;;13.40;1.00;;;;;;4955134;28;20482;-79
2023/04/30 01:11:39;;;;;;;16.97;16.07;;;13.30;1.00;;;;;;4959392;28;20526;-81
2023/04/30 01:14:13;;;;;;;16.60;15.73;;;13.40;1.00;;;;;;4958284;28;20451;-80
2023/04/30 01:16:51;;;;;;;15.77;15.07;;;13.30;1.00;;;;;;4956026;28;20455;-79
2023/04/30 01:19:35;;;;;;;16.10;15.40;;;13.30;1.00;;;;;;4957088;28;20529;-80
2023/04/30 01:22:05;;;;;;;15.10;14.50;;;13.30;1.00;;;;;;4955165;28;20902;-78
2023/04/30 01:24:49;;;;;;;16.43;15.73;;;13.30;1.00;;;;;;4959254;28;20494;-81
2023/04/30 01:27:31;;;;;;;16.13;15.47;;;13.30;13.60;;;;;;4958317;28;20470;-81
2023/04/30 01:30:03;;;;;;;16.27;15.53;;;13.30;95.90;;;;;;4951308;28;21003;-79
2023/04/30 01:32:31;;;;;;;16.00;15.10;;;13.30;99.90;;;;;;4956719;28;20849;-79
2023/04/30 01:34:59;;;;;;;16.27;15.57;;;13.20;99.90;;;;;;4957693;28;20467;-80
2023/04/30 01:37:41;;;;;;;15.47;14.80;;;13.20;90.20;;;;;;4956070;28;20980;-80
2023/04/30 01:40:24;;;;;;;16.97;16.07;;;13.20;99.90;;;;;;4957048;28;20458;-79
2023/04/30 01:43:01;;;;;;;16.07;15.37;;;13.30;90.50;;;;;;4961606;28;20490;-80
2023/04/30 01:45:48;;;;;;;16.20;15.50;;;13.20;21.90;;;;;;4960843;28;21006;-81
2023/04/30 01:48:24;;;;;;;16.17;15.37;;;13.20;59.40;;;;;;4957642;28;20556;-79
2023/04/30 01:50:58;;;;;;;16.00;15.27;;;13.20;59.10;;;;;;4959963;28;20465;-80
2023/04/30 01:53:33;;;;;;;16.87;16.07;;;13.20;6.00;;;;;;4962367;28;20603;-80
2023/04/30 01:56:04;;;;;;;16.87;15.97;;;13.20;1.00;;;;;;4961940;28;20839;-80
2023/04/30 01:58:33;;;;;;;16.77;15.93;;;13.20;1.00;;;;;;4959574;28;20859;-79
2023/04/30 02:01:03;;;;;;;16.20;15.40;;;13.20;1.00;;;;;;4957648;28;20465;-80
2023/04/30 02:03:32;;;;;;;15.73;15.07;;;13.20;4.80;;;;;;4960860;28;20462;-81
2023/04/30 02:06:01;;;;;;;16.33;15.53;;;13.20;1.00;;;;;;4962666;28;20479;-80
2023/04/30 02:08:30;;;;;;;15.00;14.40;;;13.20;1.00;;;;;;4962691;28;20490;-82
2023/04/30 02:10:58;;;;;;;16.80;15.90;;;13.20;1.00;;;;;;4965219;28;20533;-82
2023/04/30 02:13:26;;;;;;;16.33;15.53;;;13.20;1.00;;;;;;4960380;28;20864;-82
2023/04/30 02:15:54;;;;;;;15.53;14.83;;;13.20;1.00;;;;;;4963834;28;20469;-79
2023/04/30 02:18:23;;;;;;;16.40;15.50;;;13.20;1.00;;;;;;4964615;28;20498;-82
2023/04/30 02:20:52;;;;;;;16.87;16.00;;;13.20;1.00;;;;;;4962848;28;20451;-82
2023/04/30 02:23:20;;;;;;;16.20;15.40;;;13.20;1.00;;;;;;4961730;28;20455;-82
2023/04/30 02:25:48;;;;;;;16.63;15.73;;;13.20;1.00;;;;;;4962282;28;20465;-81
2023/04/30 02:28:17;;;;;;;16.50;15.60;;;13.10;1.00;;;;;;4961374;28;20498;-80
2023/04/30 02:30:45;;;;;;;16.80;15.97;;;13.10;1.00;;;;;;4963717;28;20450;-81
2023/04/30 02:33:13;;;;;;;15.37;14.60;;;13.10;1.00;;;;;;4959728;28;20546;-80
2023/04/30 02:35:43;;;;;;;16.63;15.83;;;13.10;1.00;;;;;;4959127;28;20471;-81
2023/04/30 02:38:11;;;;;;;16.83;15.73;;;13.10;1.00;;;;;;4962243;28;20487;-81
2023/04/30 02:40:41;;;;;;;15.70;14.90;;;13.10;1.00;;;;;;4960795;28;20516;-81
2023/04/30 02:43:09;;;;;;;16.70;15.80;;;13.10;1.00;;;;;;4959308;28;20454;-79
2023/04/30 02:45:37;;;;;;;17.40;16.40;;;13.10;1.00;;;;;;4962400;28;20468;-80
2023/04/30 02:48:06;;;;;;;17.10;16.10;;;13.00;1.00;;;;;;4958985;28;20782;-80
2023/04/30 02:50:34;;;;;;;16.33;15.53;;;13.00;99.90;;;;;;4960313;28;20463;-80
2023/04/30 02:53:03;;;;;;;17.20;16.13;;;13.00;1.00;;;;;;4956529;28;20492;-80
2023/04/30 02:55:31;;;;;;;17.87;16.80;;;13.00;99.90;;;;;;4959646;28;20830;-81
2023/04/30 02:58:00;;;;;;;16.77;15.70;;;13.00;99.90;;;;;;4961201;28;20476;-80
2023/04/30 03:00:28;;;;;;;17.63;16.63;;;13.00;1.00;;;;;;4960271;28;20494;-81
2023/04/30 03:02:56;;;;;;;18.17;16.97;;;13.00;99.90;;;;;;4961330;28;20467;-82
2023/04/30 03:05:24;;;;;;;17.27;16.23;;;12.90;1.00;;;;;;4962553;28;20885;-81
2023/04/30 03:07:53;;;;;;;18.17;17.13;;;12.90;1.00;;;;;;4958526;28;20477;-80
2023/04/30 03:10:23;;;;;;;18.87;17.57;;;12.90;1.00;;;;;;4960516;28;20823;-81
2023/04/30 03:12:52;;;;;;;16.67;15.80;;;12.90;1.00;;;;;;4963302;28;20483;-81
2023/04/30 03:15:20;;;;;;;16.83;15.90;;;12.90;1.00;;;;;;4961618;28;20559;-81
2023/04/30 03:17:49;;;;;;;17.63;16.43;;;12.90;1.00;;;;;;4961973;28;20493;-81
2023/04/30 03:20:17;;;;;;;17.93;16.73;;;12.90;1.00;;;;;;4963191;28;20469;-82
2023/04/30 03:22:45;;;;;;;18.17;17.07;;;12.90;99.90;;;;;;4962446;28;20518;-82
2023/04/30 03:25:13;;;;;;;17.73;16.57;;;12.90;1.00;;;;;;4960706;28;20465;-81
2023/04/30 03:27:42;;;;;;;18.90;17.70;;;12.90;99.90;;;;;;4961663;28;20455;-81
2023/04/30 03:30:11;;;;;;;19.50;18.20;;;12.80;1.00;;;;;;4961689;28;20455;-82
2023/04/30 03:32:39;;;;;;;17.90;16.80;;;12.90;99.90;;;;;;4961321;28;20486;-81
2023/04/30 03:35:09;;;;;;;18.10;17.00;;;12.80;1.00;;;;;;4961752;28;20558;-80
2023/04/30 03:37:37;;;;;;;18.70;17.40;;;12.70;1.00;;;;;;4962993;28;20473;-81
2023/04/30 03:40:06;;;;;;;18.77;17.37;;;12.70;1.00;;;;;;4958069;28;20467;-79
2023/04/30 03:42:34;;;;;;;17.57;16.50;;;12.70;1.00;;;;;;4961447;28;20452;-81
2023/04/30 03:45:04;;;;;;;19.47;18.03;;;12.70;1.00;;;;;;4959922;28;20463;-82
2023/04/30 03:47:32;;;;;;;17.87;16.87;;;12.70;1.00;;;;;;4961812;28;20466;-81
2023/04/30 03:50:01;;;;;;;18.57;17.40;;;12.70;1.00;;;;;;4962559;28;20461;-81
2023/04/30 03:52:30;;;;;;;18.27;17.17;;;12.70;1.00;;;;;;4961883;28;20550;-81
2023/04/30 03:54:58;;;;;;;18.90;17.60;;;12.70;1.00;;;;;;4961085;28;20852;-81
2023/04/30 03:57:26;;;;;;;19.20;17.97;;;12.60;1.00;;;;;;4960258;28;20471;-81
2023/04/30 03:59:55;;;;;;;16.93;16.03;;;12.60;1.00;;;;;;4961629;28;20549;-81
2023/04/30 04:02:25;;;;;;;18.27;17.17;;;12.60;1.00;;;;;;4957051;28;20500;-81
2023/04/30 04:04:53;;;;;;;18.90;17.70;;;12.60;1.00;;;;;;4961212;28;20454;-81
2023/04/30 04:07:21;;;;;;;19.30;18.03;;;12.60;1.00;;;;;;4960980;28;20462;-81
2023/04/30 04:09:49;;;;;;;17.87;16.77;;;12.60;1.00;;;;;;4963284;28;20473;-81
2023/04/30 04:12:18;;;;;;;19.20;18.00;;;12.60;1.00;;;;;;4963127;28;20463;-81
2023/04/30 04:14:46;;;;;;;18.20;17.20;;;12.70;1.00;;;;;;4960738;28;20463;-81
2023/04/30 04:17:14;;;;;;;19.40;18.10;;;12.60;1.00;;;;;;4965366;28;20454;-81
2023/04/30 04:19:43;;;;;;;19.00;17.90;;;12.70;1.00;;;;;;4963368;28;20466;-81
2023/04/30 04:22:11;;;;;;;19.00;17.90;;;12.60;1.00;;;;;;4962824;28;20459;-80
2023/04/30 04:24:40;;;;;;;18.00;17.00;;;12.60;1.00;;;;;;4959084;28;20461;-81
2023/04/30 04:27:08;;;;;;;18.97;17.60;;;12.60;1.00;;;;;;4959624;28;21062;-81
2023/04/30 04:29:36;;;;;;;19.57;18.27;;;12.60;1.00;;;;;;4963963;28;20501;-81
2023/04/30 04:32:05;;;;;;;18.30;17.20;;;12.60;1.00;;;;;;4959227;28;20455;-79
2023/04/30 04:34:33;;;;;;;19.17;18.07;;;12.60;1.00;;;;;;4955342;28;20493;-80
2023/04/30 04:37:02;;;;;;;18.53;17.43;;;12.60;1.00;;;;;;4959629;28;20465;-81
2023/04/30 04:39:31;;;;;;;19.20;18.00;;;12.60;1.00;;;;;;4960319;28;21149;-80
2023/04/30 04:42:00;;;;;;;18.67;17.57;;;12.60;1.00;;;;;;4959381;28;20543;-80
2023/04/30 04:44:28;;;;;;;19.20;18.00;;;12.60;1.00;;;;;;4959617;28;20463;-81
2023/04/30 04:46:56;;;;;;;18.77;17.73;;;12.50;1.00;;;;;;4959120;28;20498;-80
2023/04/30 04:49:25;;;;;;;17.77;16.73;;;12.60;1.00;;;;;;4960885;28;20490;-80
2023/04/30 04:51:53;;;;;;;19.33;17.90;;;12.50;1.00;;;;;;4959328;28;20516;-81
2023/04/30 04:54:22;;;;;;;18.70;17.40;;;12.60;1.00;;;;;;4958470;28;20533;-81
2023/04/30 04:56:51;;;;;;;18.60;17.60;;;12.50;1.00;;;;;;4960158;28;20477;-81
2023/04/30 04:59:19;;;;;;;19.43;18.13;;;12.50;1.00;;;;;;4957815;28;20485;-80
2023/04/30 05:01:47;;;;;;;18.53;17.43;;;12.50;1.00;;;;;;4959754;28;20991;-80
2023/04/30 05:04:16;;;;;;;17.73;16.80;;;12.60;99.90;;;;;;4964336;28;20471;-79
2023/04/30 05:06:44;;;;;;;18.37;17.37;;;12.60;99.90;;;;;;4958234;28;20464;-81
2023/04/30 05:09:12;;;;;;;20.13;18.80;;;12.60;99.90;;;;;;4956657;28;21059;-81
2023/04/30 05:11:43;;;;;;;19.00;17.73;;;12.60;99.90;;;;;;4960058;28;21180;-81
2023/04/30 05:14:11;;;;;;;19.30;18.10;;;12.60;99.90;;;;;;4959479;28;21300;-80
2023/04/30 05:16:39;;;;;;;18.43;17.43;;;12.60;99.90;;;;;;4957555;28;20451;-81
2023/04/30 05:19:08;;;;;;;18.80;17.70;;;12.70;99.90;;;;;;4959403;28;20608;-81
2023/04/30 05:21:36;;;;;;;19.07;18.07;;;12.70;99.90;;;;;;4958945;28;20462;-81
2023/04/30 05:24:05;;;;;;;17.80;16.90;;;12.70;99.90;;;;;;4960149;28;20455;-80
2023/04/30 05:26:33;;;;;;;18.47;17.40;;;12.80;99.90;;;;;;4959700;28;20521;-81
2023/04/30 05:29:02;;;;;;;18.20;17.10;;;12.80;99.90;;;;;;4957665;28;20495;-80
2023/04/30 05:31:31;;;;;;;18.77;17.77;;;12.80;99.90;;;;;;4958733;28;20463;-81
2023/04/30 05:33:59;;;;;;;18.87;17.63;;;12.80;99.90;;;;;;4959733;28;20483;-81
2023/04/30 05:36:28;;;;;;;19.10;18.00;;;12.90;99.90;;;;;;4958928;28;20561;-80
2023/04/30 05:38:56;;;;;;;19.33;18.20;;;12.90;99.90;;;;;;4957835;28;20518;-81
2023/04/30 05:41:24;;;;;;;19.07;17.87;;;12.90;99.90;;;;;;4958294;28;20475;-80
2023/04/30 05:43:52;;;;;;;19.47;18.30;;;12.90;99.90;;;;;;4961477;28;20470;-80
2023/04/30 05:46:21;;;;;;;18.77;17.73;;;13.00;99.90;;;;;;4959172;28;20533;-80
2023/04/30 05:48:50;;;;;;;18.60;17.60;;;13.00;99.90;;;;;;4961945;28;20561;-80
2023/04/30 05:51:18;;;;;;;19.83;18.50;;;13.10;99.90;;;;;;4958705;28;20471;-81
2023/04/30 05:53:46;;;;;;;19.40;18.20;;;13.10;99.90;;;;;;4961692;28;20546;-81
2023/04/30 05:56:14;;;;;;;19.60;18.50;;;13.20;99.90;;;;;;4958064;28;20470;-81
2023/04/30 05:58:42;;;;;;;18.93;17.93;;;13.40;93.60;;;;;;4955099;28;20871;-81
2023/04/30 06:01:11;;;;;;;19.47;18.33;;;13.50;29.00;;;;;;4959184;28;20709;-81
2023/04/30 06:03:40;;;;;;;18.67;17.73;;;13.50;1.00;;;;;;4956988;28;20443;-79
2023/04/30 06:06:09;;;;;;;18.90;17.90;;;13.50;1.00;;;;;;4957127;28;21593;-80
2023/04/30 06:08:40;;;;;;;18.40;17.47;;;13.50;1.00;;;;;;4956455;28;20468;-80
2023/04/30 06:11:09;;;;;;;19.00;17.53;;;13.50;1.00;;;;;;4953947;28;20464;-81
2023/04/30 06:13:37;;;;;;;19.10;18.00;;;13.50;1.00;;;;;;4958081;28;20451;-80
2023/04/30 06:16:06;;;;;;;20.10;18.70;;;13.50;1.00;;;;;;4962493;28;20550;-80
2023/04/30 06:18:35;;;;;;;19.97;18.87;;;13.50;1.00;;;;;;4957266;28;20463;-80
2023/04/30 06:21:04;;;;;;;18.83;17.77;;;13.50;1.00;;;;;;4956290;28;20825;-80
2023/04/30 06:23:32;;;;;;;19.30;18.20;;;13.60;1.00;;;;;;4960578;28;20483;-81
2023/04/30 06:26:01;;;;;;;19.73;18.57;;;13.70;1.00;;;;;;4959089;28;20447;-80
2023/04/30 06:28:29;;;;;;;19.47;18.47;;;13.80;1.00;;;;;;4963396;28;20910;-79
2023/04/30 06:30:57;;;;;;;20.07;18.83;;;13.80;1.00;;;;;;4963579;28;20450;-82
2023/04/30 06:33:26;;;;;;;20.17;18.97;;;13.80;1.00;;;;;;4966463;28;20463;-81
2023/04/30 06:35:54;;;;;;;19.20;18.20;;;13.90;1.00;;;;;;4962745;28;20478;-81
2023/04/30 06:38:24;;;;;;;19.13;18.20;;;13.90;1.00;;;;;;4965188;28;20479;-80
2023/04/30 06:40:52;;;;;;;19.53;18.40;;;14.00;1.00;;;;;;4964544;28;20453;-81
2023/04/30 06:43:20;;;;;;;18.87;17.93;;;14.10;1.00;;;;;;4963696;28;20833;-80
2023/04/30 06:45:48;;;;;;;19.67;18.60;;;14.20;1.00;;;;;;4961658;28;20479;-81
2023/04/30 06:48:16;;;;;;;18.73;17.73;;;14.20;1.00;;;;;;4963112;28;20482;-81
2023/04/30 06:50:45;;;;;;;18.73;17.73;;;14.30;1.00;;;;;;4964387;28;20525;-81
2023/04/30 06:53:13;;;;;;;19.53;18.50;;;14.30;1.00;;;;;;4964587;28;20443;-80
2023/04/30 06:55:42;;;;;;;19.10;18.10;;;14.40;1.00;;;;;;4965660;28;20563;-80
2023/04/30 06:58:11;;;;;;;18.50;17.50;;;14.50;1.00;;;;;;4959783;28;20581;-80
2023/04/30 07:00:39;;;;;;;19.87;18.77;;;14.50;1.00;;;;;;4958807;28;20467;-80
2023/04/30 07:03:07;;;;;;;19.83;18.80;;;14.50;1.00;;;;;;4962513;28;20448;-87
2023/04/30 07:05:36;;;;;;;19.70;18.60;;;14.50;1.00;;;;;;4966746;28;20545;-85
2023/04/30 07:08:06;;;;;;;19.23;18.23;;;14.70;1.00;;;;;;4968320;28;20487;-84
2023/04/30 07:10:35;;;;;;;19.17;18.17;;;14.90;1.00;;;;;;4964033;28;20460;-85
2023/04/30 07:13:04;;;;;;;19.60;18.60;;;15.10;1.00;;;;;;4961402;28;20456;-80
2023/04/30 07:15:32;;;;;;;19.83;18.73;;;15.20;1.00;;;;;;4959125;28;20499;-80
2023/04/30 07:18:02;;;;;;;18.87;17.97;;;15.30;1.00;;;;;;4957103;28;20483;-79
2023/04/30 07:20:31;;;;;;;17.77;16.87;;;15.40;1.00;;;;;;4959029;28;21248;-80
2023/04/30 07:22:59;;;;;;;19.50;18.40;;;15.40;1.00;;;;;;4959855;28;20464;-80
2023/04/30 07:25:27;;;;;;;19.73;18.57;;;15.40;99.90;;;;;;4954946;28;20473;-79
2023/04/30 07:27:55;;;;;;;18.80;17.70;;;15.30;99.90;;;;;;4955274;28;21284;-78
2023/04/30 07:30:25;;;;;;;20.50;19.10;;;15.30;99.90;;;;;;4957800;28;20468;-79
2023/04/30 07:32:53;;;;;;;19.70;18.57;;;15.40;99.90;;;;;;4957233;28;20453;-80
2023/04/30 07:35:21;;;;;;;18.40;17.50;;;15.50;99.90;;;;;;4956997;28;20498;-80
2023/04/30 07:37:49;;;;;;;18.67;17.67;;;15.40;99.90;;;;;;4957741;28;21008;-79
2023/04/30 07:40:18;;;;;;;18.60;17.60;;;15.40;99.90;;;;;;4957733;28;20461;-79
2023/04/30 07:43:02;;;;;;;17.83;17.13;;;15.30;99.90;;;;;;4960262;28;20465;-79
2023/04/30 07:45:32;;;;;;;19.00;18.10;;;15.40;99.90;;;;;;4954981;28;20468;-79
2023/04/30 07:48:01;;;;;;;18.17;17.37;;;15.50;99.90;;;;;;4956763;28;21300;-79
2023/04/30 07:50:32;;;;;;;18.30;17.50;;;15.50;99.90;;;;;;4955100;28;20465;-78
2023/04/30 07:53:02;;;;;;;17.27;16.57;;;15.60;99.90;;;;;;4956352;28;20455;-79
2023/04/30 07:55:30;;;;;;;18.30;17.33;;;15.70;99.90;;;;;;4956260;28;20481;-79
2023/04/30 07:57:58;;;;;;;18.50;17.60;;;15.60;99.90;;;;;;4956236;28;20489;-78
2023/04/30 08:00:28;;;;;;;17.77;16.83;;;15.60;99.90;;;;;;4955150;28;20457;-79
2023/04/30 08:02:59;;;;;;;18.47;17.50;;;15.60;99.90;;;;;;4959331;28;20454;-80
2023/04/30 08:05:28;;;;;;;17.50;16.70;;;15.70;99.90;;;;;;4954865;28;20520;-78
2023/04/30 08:07:56;;;;;;;17.73;16.90;;;15.80;99.90;;;;;;4960245;28;21236;-80
2023/04/30 08:10:25;;;;;;;18.00;17.20;;;15.70;99.90;;;;;;4958443;28;20459;-80
2023/04/30 08:12:53;;;;;;;17.53;16.73;;;15.90;99.90;;;;;;4952865;28;20552;-80
2023/04/30 08:15:21;;;;;;;17.37;16.57;;;16.10;99.90;;;;;;4954080;28;20500;-80
2023/04/30 08:17:50;;;;;;;16.87;16.10;;;15.80;99.90;;;;;;4956887;28;20510;-79
2023/04/30 08:20:22;;;;;;;16.83;16.20;;;15.90;99.90;;;;;;4952533;28;20467;-79
2023/04/30 08:22:50;;;;;;;18.20;17.33;;;16.10;99.90;;;;;;4957826;28;20462;-80
2023/04/30 08:25:18;;;;;;;18.17;17.30;;;16.30;99.90;;;;;;4956673;28;20508;-80
2023/04/30 08:27:47;;;;;;;17.20;16.50;;;16.20;99.90;;;;;;4958273;28;20732;-80
2023/04/30 08:30:15;;;;;;;17.70;16.83;;;16.10;99.90;;;;;;4957220;28;20607;-80
2023/04/30 08:32:43;;;;;;;16.33;15.63;;;16.00;99.90;;;;;;4958571;28;20462;-78
2023/04/30 08:35:11;;;;;;;15.70;15.00;;;16.00;99.90;;;;;;4956424;28;20580;-80
2023/04/30 08:37:40;;;;;;;15.37;14.70;;;16.10;99.90;;;;;;4957716;28;20517;-80
2023/04/30 08:40:10;;;;;;;15.30;14.80;;;16.00;99.90;;;;;;4958286;28;20461;-79
2023/04/30 08:42:44;;;;;;;14.93;14.33;;;15.70;99.90;;;;;;4957281;28;20767;-80
2023/04/30 08:45:13;;;;;;;15.57;14.97;;;15.80;99.90;;;;;;4954248;28;21157;-78
2023/04/30 08:47:41;;;;;;;15.30;14.70;;;16.00;99.90;;;;;;4958159;28;20515;-80
2023/04/30 08:50:10;;;;;;;14.90;14.30;;;16.00;99.90;;;;;;4958032;28;20524;-80
2023/04/30 08:52:42;;;;;;;15.67;15.07;;;16.10;99.90;;;;;;4959056;28;21038;-79
2023/04/30 08:55:11;;;;;;;16.37;15.77;;;15.80;99.90;;;;;;4959256;28;21069;-79
2023/04/30 08:57:39;;;;;;;14.80;14.20;;;15.90;99.90;;;;;;4955924;28;20461;-80
2023/04/30 09:00:08;;;;;;;15.67;14.97;;;15.90;99.90;;;;;;4959450;28;20564;-80
2023/04/30 09:02:40;;;;;;;15.47;14.87;;;15.90;99.90;;;;;;4958093;28;20458;-79
2023/04/30 09:05:11;;;;;;;16.00;15.23;;;15.90;99.90;;;;;;4958811;28;20463;-80
2023/04/30 09:07:42;;;;;;;15.63;15.03;;;15.90;99.90;;;;;;4955872;28;20828;-79
2023/04/30 09:10:33;;;;;;;15.60;15.00;;;15.90;99.90;;;;;;4955893;28;20458;-81
2023/04/30 09:13:04;;;;;;;15.47;14.77;;;16.00;99.90;;;;;;4954578;28;21041;-80
2023/04/30 09:15:33;;;;;;;15.33;14.63;;;16.00;99.90;;;;;;4958126;28;20917;-79
2023/04/30 09:18:10;;;;;;;14.83;14.23;;;16.00;99.90;;;;;;4960462;28;20493;-80
2023/04/30 09:20:53;;;;;;;15.47;14.87;;;16.00;99.90;;;;;;4951420;28;20461;-79
2023/04/30 09:23:23;;;;;;;16.47;15.77;;;15.90;99.90;;;;;;4959101;28;20466;-79
2023/04/30 09:25:51;;;;;;;15.73;15.13;;;16.00;99.90;;;;;;4956745;28;20491;-80
2023/04/30 09:28:22;;;;;;;15.17;14.57;;;15.90;99.90;;;;;;4958788;28;20520;-80
2023/04/30 09:30:51;;;;;;;15.60;14.90;;;15.90;99.90;;;;;;4955064;28;20460;-80
2023/04/30 09:33:20;;;;;;;14.67;14.17;;;16.00;99.90;;;;;;4957359;28;20524;-80
2023/04/30 09:35:48;;;;;;;14.03;13.57;;;16.10;99.90;;;;;;4957728;28;20487;-80
2023/04/30 09:38:29;;;;;;;15.20;14.60;;;16.20;99.90;;;;;;4956867;28;20566;-79
2023/04/30 09:40:59;;;;;;;14.80;14.20;;;16.10;99.90;;;;;;4959328;28;20534;-80
2023/04/30 09:43:27;;;;;;;13.83;13.37;;;16.00;99.90;;;;;;4955101;28;20555;-79
2023/04/30 09:45:58;;;;;;;15.07;14.43;;;16.10;99.90;;;;;;4954791;28;20470;-80
2023/04/30 09:48:28;;;;;;;14.00;13.50;;;16.10;99.90;;;;;;4958347;28;20477;-80
2023/04/30 09:50:56;;;;;;;14.60;14.00;;;16.10;99.90;;;;;;4956530;28;20521;-80
2023/04/30 09:53:24;;;;;;;14.53;14.03;;;16.20;99.90;;;;;;4956959;28;20560;-79
2023/04/30 09:55:57;;;;;;;13.80;13.40;;;16.20;99.90;;;;;;4956727;28;20469;-78
2023/04/30 09:58:28;;;;;;;14.20;13.70;;;16.30;99.90;;;;;;4955563;28;20518;-79
2023/04/30 10:00:59;;;;;;;13.67;13.23;;;16.30;99.90;;;;;;4957776;28;20466;-81
2023/04/30 10:03:27;;;;;;;15.03;14.10;;;16.50;99.90;;;;;;4961640;28;20533;-80
2023/04/30 10:05:56;;;;;;;13.97;13.27;;;16.40;99.90;;;;;;4962462;28;20541;-80
2023/04/30 10:08:27;;;;;;;13.23;12.83;;;16.40;99.90;;;;;;4963062;28;20477;-80
2023/04/30 10:11:00;;;;;;;13.17;12.70;;;16.50;99.90;;;;;;4962012;28;21034;-80
2023/04/30 10:13:31;;;;;;;13.30;12.90;;;16.50;99.90;;;;;;4964989;28;20456;-79
2023/04/30 10:16:07;;;;;;;14.00;13.20;;;16.50;99.90;;;;;;4963144;28;20810;-79
2023/04/30 10:18:39;;;;;;;12.30;11.83;;;16.40;99.90;;;;;;4960556;28;20909;-79
2023/04/30 10:21:13;;;;;;;13.60;13.00;;;16.30;99.90;;;;;;4957387;28;20489;-79
2023/04/30 10:23:42;;;;;;;13.10;12.50;;;16.20;99.90;;;;;;4958786;28;20461;-79
2023/04/30 10:26:12;;;;;;;12.30;11.90;;;16.30;99.90;;;;;;4962264;28;20486;-79
2023/04/30 10:28:41;;;;;;;13.00;12.50;;;16.30;99.90;;;;;;4960858;28;20486;-80
2023/04/30 10:31:10;;;;;;;11.90;11.50;;;16.50;99.90;;;;;;4961362;28;20477;-79
2023/04/30 10:33:48;;;;;;;12.77;12.27;;;16.40;99.90;;;;;;4952184;28;20462;-79
2023/04/30 10:36:26;;;;;;;12.50;12.10;;;16.40;99.90;;;;;;4963373;28;20485;-80
2023/04/30 10:38:57;;;;;;;12.50;11.80;;;16.40;99.90;;;;;;4961147;28;20865;-79
2023/04/30 10:41:30;;;;;;;12.47;12.07;;;16.50;99.90;;;;;;4962744;28;20544;-80
2023/04/30 10:44:01;;;;;;;12.37;11.87;;;16.50;99.90;;;;;;4957134;28;20489;-79
2023/04/30 10:46:29;;;;;;;12.37;11.90;;;16.50;99.90;;;;;;4962244;28;20450;-81
2023/04/30 10:48:59;;;;;;;13.20;12.70;;;16.50;99.90;;;;;;4960583;28;21070;-80
2023/04/30 10:51:46;;;;;;;12.40;11.90;;;16.60;99.90;;;;;;4960149;28;20462;-79
2023/04/30 10:54:17;;;;;;;12.40;11.93;;;16.40;99.90;;;;;;4963277;28;20880;-79
2023/04/30 10:56:47;;;;;;;12.73;12.23;;;16.30;99.90;;;;;;4960393;28;20485;-80
2023/04/30 10:59:15;;;;;;;12.60;12.10;;;16.40;99.90;;;;;;4957692;28;21119;-80
2023/04/30 11:01:57;;;;;;;11.90;11.50;;;16.30;99.90;;;;;;4962130;28;20490;-80
2023/04/30 11:04:26;;;;;;;12.70;12.10;;;16.30;99.90;;;;;;4954865;28;20490;-80
2023/04/30 11:07:09;;;;;;;11.27;10.87;;;16.40;99.90;;;;;;4955350;28;20493;-79
2023/04/30 11:09:42;;;;;;;12.73;12.33;;;16.60;99.90;;;;;;4958159;28;20491;-80
2023/04/30 11:12:13;;;;;;;12.10;11.70;;;16.70;99.90;;;;;;4957199;28;20565;-80
2023/04/30 11:14:43;;;;;;;11.87;11.47;;;16.80;99.90;;;;;;4951782;28;20470;-81
2023/04/30 11:17:13;;;;;;;11.90;11.37;;;16.80;99.90;;;;;;4957216;28;20494;-79
2023/04/30 11:19:48;;;;;;;11.43;10.93;;;16.90;99.90;;;;;;4962777;28;20493;-79
2023/04/30 11:22:18;;;;;;;11.53;11.13;;;17.00;99.90;;;;;;4959781;28;20458;-78
2023/04/30 11:24:54;;;;;;;11.10;10.60;;;17.10;99.90;;;;;;4954564;28;20537;-80
2023/04/30 11:27:27;;;;;;;11.17;10.70;;;17.30;99.90;;;;;;4956639;28;20522;-80
2023/04/30 11:29:57;;;;;;;10.50;10.20;;;17.00;99.90;;;;;;4960430;28;20474;-79
2023/04/30 11:32:32;;;;;;;11.00;10.60;;;17.00;99.90;;;;;;4959061;28;20530;-79
2023/04/30 11:35:01;;;;;;;10.80;10.40;;;17.00;99.90;;;;;;4959775;28;20490;-79
2023/04/30 11:37:32;;;;;;;10.40;10.00;;;17.00;99.90;;;;;;4959515;28;21709;-79
2023/04/30 11:40:02;;;;;;;10.43;10.03;;;17.10;99.90;;;;;;4957840;28;20454;-78
2023/04/30 11:42:34;;;;;;;11.07;10.37;;;17.10;99.90;;;;;;4956408;28;20559;-81
2023/04/30 11:45:07;;;;;;;10.30;9.97;;;17.10;99.90;;;;;;4956087;28;20449;-79
2023/04/30 11:47:40;;;;;;;11.20;10.80;;;17.20;99.90;;;;;;4957804;28;20501;-79
2023/04/30 11:50:09;;;;;;;11.13;10.73;;;17.20;99.90;;;;;;4958117;28;20454;-80
2023/04/30 11:52:37;;;;;;;11.37;10.97;;;17.20;99.90;;;;;;4959332;28;22231;-81
2023/04/30 11:55:08;;;;;;;10.37;9.90;;;17.20;99.90;;;;;;4966715;28;20458;-82
2023/04/30 11:57:41;;;;;;;11.10;10.70;;;17.20;99.90;;;;;;4961222;28;20609;-80
2023/04/30 12:00:12;;;;;;;10.50;10.20;;;17.10;99.90;;;;;;4960649;28;20451;-81
2023/04/30 12:02:40;;;;;;;11.10;10.70;;;17.10;99.90;;;;;;4959507;28;20447;-79
2023/04/30 12:05:16;;;;;;;10.37;10.00;;;17.20;99.90;;;;;;4958384;28;20452;-79
2023/04/30 12:07:49;;;;;;;10.97;10.57;;;17.20;99.90;;;;;;4958854;28;20457;-79
2023/04/30 12:10:19;;;;;;;11.07;10.67;;;17.20;99.90;;;;;;4956498;28;20471;-78
2023/04/30 12:12:50;;;;;;;9.40;9.00;;;17.20;99.90;;;;;;4960611;28;20454;-80
2023/04/30 12:15:25;;;;;;;9.77;9.37;;;17.20;99.90;;;;;;4960803;28;20522;-80
2023/04/30 12:17:55;;;;;;;9.60;9.30;;;17.20;99.90;;;;;;4965532;28;20517;-79
2023/04/30 12:20:26;;;;;;;9.53;9.13;;;17.30;99.90;;;;;;4960405;28;20458;-80
2023/04/30 12:22:54;;;;;;;9.53;9.23;;;17.30;99.90;;;;;;4960504;28;20462;-81
2023/04/30 12:25:23;;;;;;;9.23;8.93;;;17.30;99.90;;;;;;4960131;28;20463;-80
2023/04/30 12:27:53;;;;;;;9.83;9.53;;;17.30;99.90;;;;;;4951563;28;21002;-80
2023/04/30 12:30:25;;;;;;;9.53;9.20;;;17.30;99.90;;;;;;4961343;28;20450;-80
2023/04/30 12:32:57;;;;;;;9.53;9.20;;;17.20;99.90;;;;;;4959783;28;20534;-78
2023/04/30 12:35:29;;;;;;;9.17;8.77;;;17.00;99.90;;;;;;4964430;28;20486;-79
2023/04/30 12:38:02;;;;;;;9.30;8.80;;;17.10;99.90;;;;;;4955482;28;20497;-78
2023/04/30 12:40:31;;;;;;;9.87;9.37;;;17.20;99.90;;;;;;4959084;28;20484;-80
2023/04/30 12:43:05;;;;;;;9.53;9.17;;;17.30;99.90;;;;;;4958329;28;20519;-79
2023/04/30 12:45:45;;;;;;;9.20;8.90;;;17.50;99.90;;;;;;4958823;28;20981;-81
2023/04/30 12:48:15;;;;;;;9.63;9.23;;;17.60;99.90;;;;;;4963002;28;20498;-81